sensor_id;sensor_type;location;lat;lon;timestamp;pressure;altitude;pressure_sealevel;temperature;humidity
25238;BME280;13185;50.872;5.306;2023-02-28T00:00:17;102652.44;;;-0.07;79.38
25238;BME280;13185;50.872;5.306;2023-02-28T00:02:44;102654.13;;;-0.11;79.26
25238;BME280;13185;50.872;5.306;2023-02-28T00:05:12;102651.50;;;-0.12;79.26
25238;BME280;13185;50.872;5.306;2023-02-28T00:07:37;102650.63;;;-0.13;79.31
25238;BME280;13185;50.872;5.306;2023-02-28T00:10:04;102648.84;;;-0.14;79.33
25238;BME280;13185;50.872;5.306;2023-02-28T00:12:31;102644.44;;;-0.16;79.41
25238;BME280;13185;50.872;5.306;2023-02-28T00:14:57;102642.69;;;-0.17;79.46
25238;BME280;13185;50.872;5.306;2023-02-28T00:17:23;102649.72;;;-0.18;79.64
25238;BME280;13185;50.872;5.306;2023-02-28T00:19:49;102652.34;;;-0.19;79.61
25238;BME280;13185;50.872;5.306;2023-02-28T00:22:19;102648.78;;;-0.21;79.64
25238;BME280;13185;50.872;5.306;2023-02-28T00:24:45;102649.66;;;-0.22;79.88
25238;BME280;13185;50.872;5.306;2023-02-28T00:27:11;102649.63;;;-0.25;79.98
25238;BME280;13185;50.872;5.306;2023-02-28T00:29:37;102656.66;;;-0.26;80.00
25238;BME280;13185;50.872;5.306;2023-02-28T00:32:03;102655.78;;;-0.28;80.20
25238;BME280;13185;50.872;5.306;2023-02-28T00:34:30;102655.78;;;-0.28;79.97
25238;BME280;13185;50.872;5.306;2023-02-28T00:36:55;102658.41;;;-0.30;80.44
25238;BME280;13185;50.872;5.306;2023-02-28T00:39:21;102658.41;;;-0.30;80.21
25238;BME280;13185;50.872;5.306;2023-02-28T00:41:47;102654.84;;;-0.32;80.31
25238;BME280;13185;50.872;5.306;2023-02-28T00:44:13;102660.09;;;-0.33;80.16
25238;BME280;13185;50.872;5.306;2023-02-28T00:46:38;102654.81;;;-0.35;80.17
25238;BME280;13185;50.872;5.306;2023-02-28T00:49:04;102658.31;;;-0.39;80.42
25238;BME280;13185;50.872;5.306;2023-02-28T00:51:29;102660.00;;;-0.44;80.39
25238;BME280;13185;50.872;5.306;2023-02-28T00:53:56;102660.00;;;-0.45;80.48
25238;BME280;13185;50.872;5.306;2023-02-28T00:56:23;102665.28;;;-0.45;80.69
25238;BME280;13185;50.872;5.306;2023-02-28T00:58:48;102654.72;;;-0.45;80.72
25238;BME280;13185;50.872;5.306;2023-02-28T01:01:14;102660.88;;;-0.46;80.90
25238;BME280;13185;50.872;5.306;2023-02-28T01:03:39;102659.97;;;-0.50;81.13
25238;BME280;13185;50.872;5.306;2023-02-28T01:06:05;102660.88;;;-0.48;81.18
25238;BME280;13185;50.872;5.306;2023-02-28T01:08:30;102664.38;;;-0.49;81.06
25238;BME280;13185;50.872;5.306;2023-02-28T01:10:56;102662.59;;;-0.51;81.21
25238;BME280;13185;50.872;5.306;2023-02-28T01:13:22;102663.47;;;-0.51;81.40
25238;BME280;13185;50.872;5.306;2023-02-28T01:15:54;102664.34;;;-0.52;81.52
25238;BME280;13185;50.872;5.306;2023-02-28T01:18:20;102673.16;;;-0.51;81.65
25238;BME280;13185;50.872;5.306;2023-02-28T01:20:47;102662.56;;;-0.54;81.52
25238;BME280;13185;50.872;5.306;2023-02-28T01:23:13;102665.19;;;-0.56;81.57
25238;BME280;13185;50.872;5.306;2023-02-28T01:25:38;102663.41;;;-0.59;81.56
25238;BME280;13185;50.872;5.306;2023-02-28T01:28:05;102670.41;;;-0.61;81.62
25238;BME280;13185;50.872;5.306;2023-02-28T01:30:31;102668.59;;;-0.65;81.79
25238;BME280;13185;50.872;5.306;2023-02-28T01:32:57;102665.06;;;-0.67;82.03
25238;BME280;13185;50.872;5.306;2023-02-28T01:35:24;102665.94;;;-0.66;81.90
25238;BME280;13185;50.872;5.306;2023-02-28T01:37:50;102665.06;;;-0.67;82.13
25238;BME280;13185;50.872;5.306;2023-02-28T01:40:15;102658.91;;;-0.67;82.12
25238;BME280;13185;50.872;5.306;2023-02-28T01:42:41;102661.53;;;-0.69;82.15
25238;BME280;13185;50.872;5.306;2023-02-28T01:47:44;102653.56;;;-0.73;82.42
25238;BME280;13185;50.872;5.306;2023-02-28T01:50:15;102663.19;;;-0.77;82.65
25238;BME280;13185;50.872;5.306;2023-02-28T01:52:42;102660.56;;;-0.77;82.59
25238;BME280;13185;50.872;5.306;2023-02-28T01:55:11;102657.94;;;-0.77;82.67
25238;BME280;13185;50.872;5.306;2023-02-28T01:57:41;102650.91;;;-0.78;82.55
25238;BME280;13185;50.872;5.306;2023-02-28T02:00:10;102650.88;;;-0.79;82.54
25238;BME280;13185;50.872;5.306;2023-02-28T02:02:39;102657.03;;;-0.80;82.67
25238;BME280;13185;50.872;5.306;2023-02-28T02:05:15;102647.34;;;-0.83;82.83
25238;BME280;13185;50.872;5.306;2023-02-28T02:07:43;102656.13;;;-0.82;82.68
25238;BME280;13185;50.872;5.306;2023-02-28T02:15:48;102645.47;;;-0.93;83.16
25238;BME280;13185;50.872;5.306;2023-02-28T02:18:32;102639.34;;;-0.94;83.11
25238;BME280;13185;50.872;5.306;2023-02-28T02:26:06;102642.78;;;-0.96;83.09
25238;BME280;13185;50.872;5.306;2023-02-28T02:29:07;102636.66;;;-0.97;83.19
25238;BME280;13185;50.872;5.306;2023-02-28T02:37:47;102636.59;;;-1.01;83.34
25238;BME280;13185;50.872;5.306;2023-02-28T02:40:20;102630.41;;;-1.05;83.43
25238;BME280;13185;50.872;5.306;2023-02-28T02:42:55;102633.88;;;-1.07;83.48
25238;BME280;13185;50.872;5.306;2023-02-28T02:45:28;102631.25;;;-1.07;83.64
25238;BME280;13185;50.872;5.306;2023-02-28T02:48:02;102627.72;;;-1.09;83.66
25238;BME280;13185;50.872;5.306;2023-02-28T02:50:36;102627.72;;;-1.09;83.67
25238;BME280;13185;50.872;5.306;2023-02-28T02:53:04;102627.72;;;-1.11;83.67
25238;BME280;13185;50.872;5.306;2023-02-28T02:55:36;102618.94;;;-1.11;83.75
25238;BME280;13185;50.872;5.306;2023-02-28T02:58:05;102625.94;;;-1.12;83.90
25238;BME280;13185;50.872;5.306;2023-02-28T03:00:37;102627.69;;;-1.14;83.93
25238;BME280;13185;50.872;5.306;2023-02-28T03:03:05;102636.47;;;-1.13;84.00
25238;BME280;13185;50.872;5.306;2023-02-28T03:05:50;102630.28;;;-1.16;84.22
25238;BME280;13185;50.872;5.306;2023-02-28T03:08:16;102628.53;;;-1.15;84.17
25238;BME280;13185;50.872;5.306;2023-02-28T03:10:45;102637.28;;;-1.16;84.24
25238;BME280;13185;50.872;5.306;2023-02-28T03:13:20;102630.28;;;-1.16;84.11
25238;BME280;13185;50.872;5.306;2023-02-28T03:24:19;102628.47;;;-1.23;84.40
25238;BME280;13185;50.872;5.306;2023-02-28T03:26:55;102631.09;;;-1.21;84.56
25238;BME280;13185;50.872;5.306;2023-02-28T03:29:35;102628.47;;;-1.21;84.68
25238;BME280;13185;50.872;5.306;2023-02-28T03:32:24;102627.59;;;-1.22;84.64
25238;BME280;13185;50.872;5.306;2023-02-28T03:35:05;102617.88;;;-1.26;84.69
25238;BME280;13185;50.872;5.306;2023-02-28T03:37:35;102625.75;;;-1.29;84.58
25238;BME280;13185;50.872;5.306;2023-02-28T03:40:07;102624.81;;;-1.34;84.61
25238;BME280;13185;50.872;5.306;2023-02-28T03:42:35;102626.47;;;-1.40;84.93
25238;BME280;13185;50.872;5.306;2023-02-28T03:45:05;102628.19;;;-1.44;85.02
25238;BME280;13185;50.872;5.306;2023-02-28T03:47:38;102630.81;;;-1.46;85.33
25238;BME280;13185;50.872;5.306;2023-02-28T03:55:44;102641.41;;;-1.39;85.73
25238;BME280;13185;50.872;5.306;2023-02-28T04:03:42;102642.31;;;-1.36;86.28
25238;BME280;13185;50.872;5.306;2023-02-28T04:06:17;102641.47;;;-1.35;86.23
25238;BME280;13185;50.872;5.306;2023-02-28T04:08:43;102646.69;;;-1.36;86.33
25238;BME280;13185;50.872;5.306;2023-02-28T04:13:43;102644.91;;;-1.40;86.17
25238;BME280;13185;50.872;5.306;2023-02-28T04:16:09;102644.91;;;-1.40;86.28
25238;BME280;13185;50.872;5.306;2023-02-28T04:18:39;102646.63;;;-1.42;86.33
25238;BME280;13185;50.872;5.306;2023-02-28T04:21:05;102644.84;;;-1.45;86.45
25238;BME280;13185;50.872;5.306;2023-02-28T04:23:31;102654.44;;;-1.49;86.22
25238;BME280;13185;50.872;5.306;2023-02-28T04:25:57;102648.31;;;-1.46;86.32
25238;BME280;13185;50.872;5.306;2023-02-28T04:28:22;102658.81;;;-1.49;86.46
25238;BME280;13185;50.872;5.306;2023-02-28T04:31:03;102655.28;;;-1.53;86.39
25238;BME280;13185;50.872;5.306;2023-02-28T04:33:30;102651.78;;;-1.52;86.61
25238;BME280;13185;50.872;5.306;2023-02-28T04:36:04;102654.38;;;-1.53;86.51
25238;BME280;13185;50.872;5.306;2023-02-28T04:38:33;102650.00;;;-1.54;86.69
25238;BME280;13185;50.872;5.306;2023-02-28T04:41:00;102657.00;;;-1.56;86.82
25238;BME280;13185;50.872;5.306;2023-02-28T04:43:27;102662.19;;;-1.58;86.92
25238;BME280;13185;50.872;5.306;2023-02-28T04:45:54;102670.16;;;-1.56;87.02
25238;BME280;13185;50.872;5.306;2023-02-28T04:48:27;102661.34;;;-1.57;87.07
25238;BME280;13185;50.872;5.306;2023-02-28T04:50:53;102673.59;;;-1.57;87.23
25238;BME280;13185;50.872;5.306;2023-02-28T04:53:19;102663.91;;;-1.61;87.20
25238;BME280;13185;50.872;5.306;2023-02-28T04:55:45;102663.03;;;-1.63;87.41
25238;BME280;13185;50.872;5.306;2023-02-28T04:58:11;102662.13;;;-1.64;87.48
25238;BME280;13185;50.872;5.306;2023-02-28T05:00:37;102661.19;;;-1.67;87.35
25238;BME280;13185;50.872;5.306;2023-02-28T05:03:03;102665.53;;;-1.69;87.54
25238;BME280;13185;50.872;5.306;2023-02-28T05:05:28;102654.13;;;-1.71;87.45
25238;BME280;13185;50.872;5.306;2023-02-28T05:07:53;102656.72;;;-1.75;87.24
25238;BME280;13185;50.872;5.306;2023-02-28T05:10:21;102655.81;;;-1.77;87.67
25238;BME280;13185;50.872;5.306;2023-02-28T05:12:47;102656.69;;;-1.76;87.69
25238;BME280;13185;50.872;5.306;2023-02-28T05:15:14;102654.00;;;-1.79;87.78
25238;BME280;13185;50.872;5.306;2023-02-28T05:17:40;102655.72;;;-1.81;87.76
25238;BME280;13185;50.872;5.306;2023-02-28T05:20:07;102651.34;;;-1.82;87.86
25238;BME280;13185;50.872;5.306;2023-02-28T05:22:34;102652.22;;;-1.83;88.02
25238;BME280;13185;50.872;5.306;2023-02-28T05:24:59;102647.81;;;-1.84;88.13
25238;BME280;13185;50.872;5.306;2023-02-28T05:27:25;102643.41;;;-1.85;88.07
25238;BME280;13185;50.872;5.306;2023-02-28T05:29:50;102649.53;;;-1.86;88.12
25238;BME280;13185;50.872;5.306;2023-02-28T05:32:15;102647.69;;;-1.90;87.99
25238;BME280;13185;50.872;5.306;2023-02-28T05:34:41;102648.56;;;-1.93;88.04
25238;BME280;13185;50.872;5.306;2023-02-28T05:37:14;102647.66;;;-1.95;87.88
25238;BME280;13185;50.872;5.306;2023-02-28T05:39:41;102653.75;;;-1.97;87.85
25238;BME280;13185;50.872;5.306;2023-02-28T05:42:06;102658.94;;;-2.00;87.81
25238;BME280;13185;50.872;5.306;2023-02-28T05:44:32;102662.41;;;-2.05;87.80
25238;BME280;13185;50.872;5.306;2023-02-28T05:46:57;102657.03;;;-2.09;87.60
25238;BME280;13185;50.872;5.306;2023-02-28T05:49:23;102653.50;;;-2.11;87.77
25238;BME280;13185;50.872;5.306;2023-02-28T05:51:48;102654.38;;;-2.12;87.94
25238;BME280;13185;50.872;5.306;2023-02-28T05:54:14;102657.00;;;-2.12;88.12
25238;BME280;13185;50.872;5.306;2023-02-28T05:56:39;102653.50;;;-2.13;88.26
25238;BME280;13185;50.872;5.306;2023-02-28T05:59:06;102661.38;;;-2.13;88.11
25238;BME280;13185;50.872;5.306;2023-02-28T06:01:36;102656.97;;;-2.15;88.38
25238;BME280;13185;50.872;5.306;2023-02-28T06:04:03;102659.56;;;-2.17;88.28
25238;BME280;13185;50.872;5.306;2023-02-28T06:06:29;102659.50;;;-2.20;88.30
25238;BME280;13185;50.872;5.306;2023-02-28T06:08:56;102658.56;;;-2.25;88.38
25238;BME280;13185;50.872;5.306;2023-02-28T06:11:22;102656.78;;;-2.27;88.59
25238;BME280;13185;50.872;5.306;2023-02-28T06:14:01;102660.25;;;-2.28;88.61
25238;BME280;13185;50.872;5.306;2023-02-28T06:16:28;102667.22;;;-2.30;88.61
25238;BME280;13185;50.872;5.306;2023-02-28T06:18:54;102670.69;;;-2.32;88.71
25238;BME280;13185;50.872;5.306;2023-02-28T06:21:22;102671.56;;;-2.33;88.50
25238;BME280;13185;50.872;5.306;2023-02-28T06:23:48;102671.50;;;-2.37;88.57
25238;BME280;13185;50.872;5.306;2023-02-28T06:26:13;102677.59;;;-2.40;88.57
25238;BME280;13185;50.872;5.306;2023-02-28T06:28:39;102686.28;;;-2.42;88.71
25238;BME280;13185;50.872;5.306;2023-02-28T06:31:12;102688.91;;;-2.42;88.93
25238;BME280;13185;50.872;5.306;2023-02-28T06:33:39;102683.69;;;-2.41;89.12
25238;BME280;13185;50.872;5.306;2023-02-28T06:36:06;102690.69;;;-2.41;89.09
25238;BME280;13185;50.872;5.306;2023-02-28T06:38:32;102700.28;;;-2.43;89.09
25238;BME280;13185;50.872;5.306;2023-02-28T06:40:58;102694.16;;;-2.42;89.24
25238;BME280;13185;50.872;5.306;2023-02-28T06:43:30;102688.03;;;-2.43;89.23
25238;BME280;13185;50.872;5.306;2023-02-28T06:45:58;102693.25;;;-2.44;89.07
25238;BME280;13185;50.872;5.306;2023-02-28T06:48:25;102693.25;;;-2.44;89.04
25238;BME280;13185;50.872;5.306;2023-02-28T06:50:52;102705.53;;;-2.43;89.14
25238;BME280;13185;50.872;5.306;2023-02-28T06:53:17;102701.16;;;-2.44;89.27
25238;BME280;13185;50.872;5.306;2023-02-28T06:55:43;102710.84;;;-2.40;89.54
25238;BME280;13185;50.872;5.306;2023-02-28T06:58:08;102710.81;;;-2.42;89.63
25238;BME280;13185;50.872;5.306;2023-02-28T07:00:43;102718.78;;;-2.39;89.52
25238;BME280;13185;50.872;5.306;2023-02-28T07:03:11;102716.16;;;-2.39;89.58
25238;BME280;13185;50.872;5.306;2023-02-28T07:05:38;102707.38;;;-2.39;89.60
25238;BME280;13185;50.872;5.306;2023-02-28T07:08:04;102717.06;;;-2.35;89.79
25238;BME280;13185;50.872;5.306;2023-02-28T07:10:31;102716.25;;;-2.33;89.69
25238;BME280;13185;50.872;5.306;2023-02-28T07:12:58;102719.81;;;-2.29;89.62
25238;BME280;13185;50.872;5.306;2023-02-28T07:15:24;102723.38;;;-2.27;89.71
25238;BME280;13185;50.872;5.306;2023-02-28T07:17:49;102725.19;;;-2.23;89.62
25238;BME280;13185;50.872;5.306;2023-02-28T07:20:15;102721.69;;;-2.22;89.52
25238;BME280;13185;50.872;5.306;2023-02-28T07:22:41;102721.75;;;-2.19;89.82
25238;BME280;13185;50.872;5.306;2023-02-28T07:25:07;102728.84;;;-2.13;90.02
25238;BME280;13185;50.872;5.306;2023-02-28T07:27:33;102735.91;;;-2.11;89.74
25238;BME280;13185;50.872;5.306;2023-02-28T07:29:59;102727.19;;;-2.08;89.63
25238;BME280;13185;50.872;5.306;2023-02-28T07:32:27;102741.25;;;-2.06;89.47
25238;BME280;13185;50.872;5.306;2023-02-28T07:34:53;102730.84;;;-1.98;89.71
25238;BME280;13185;50.872;5.306;2023-02-28T07:37:19;102729.31;;;-1.87;89.62
25238;BME280;13185;50.872;5.306;2023-02-28T07:39:45;102730.34;;;-1.76;89.27
25238;BME280;13185;50.872;5.306;2023-02-28T07:42:10;102731.34;;;-1.68;88.94
25238;BME280;13185;50.872;5.306;2023-02-28T07:44:39;102730.56;;;-1.61;88.67
25238;BME280;13185;50.872;5.306;2023-02-28T07:47:09;102725.44;;;-1.52;88.18
25238;BME280;13185;50.872;5.306;2023-02-28T07:49:36;102730.72;;;-1.50;87.87
25238;BME280;13185;50.872;5.306;2023-02-28T07:52:03;102725.56;;;-1.44;87.94
25238;BME280;13185;50.872;5.306;2023-02-28T07:54:29;102729.16;;;-1.37;87.80
25238;BME280;13185;50.872;5.306;2023-02-28T07:56:54;102736.28;;;-1.32;87.50
25238;BME280;13185;50.872;5.306;2023-02-28T07:59:20;102727.56;;;-1.26;87.35
25238;BME280;13185;50.872;5.306;2023-02-28T08:01:45;102727.56;;;-1.26;87.29
25238;BME280;13185;50.872;5.306;2023-02-28T08:04:11;102728.56;;;-1.17;87.28
25238;BME280;13185;50.872;5.306;2023-02-28T08:06:36;102730.44;;;-1.08;87.20
25238;BME280;13185;50.872;5.306;2023-02-28T08:09:02;102733.06;;;-1.08;86.70
25238;BME280;13185;50.872;5.306;2023-02-28T08:11:28;102733.16;;;-1.02;86.52
25238;BME280;13185;50.872;5.306;2023-02-28T08:13:54;102733.31;;;-0.91;86.80
25238;BME280;13185;50.872;5.306;2023-02-28T08:16:20;102732.53;;;-0.82;86.32
25238;BME280;13185;50.872;5.306;2023-02-28T08:18:51;102737.94;;;-0.69;85.48
25238;BME280;13185;50.872;5.306;2023-02-28T08:21:18;102734.53;;;-0.62;85.12
25238;BME280;13185;50.872;5.306;2023-02-28T08:23:47;102730.16;;;-0.61;85.03
25238;BME280;13185;50.872;5.306;2023-02-28T08:26:14;102738.94;;;-0.61;85.09
25238;BME280;13185;50.872;5.306;2023-02-28T08:28:39;102731.91;;;-0.62;85.02
25238;BME280;13185;50.872;5.306;2023-02-28T08:31:12;102730.19;;;-0.56;84.88
25238;BME280;13185;50.872;5.306;2023-02-28T08:33:39;102726.69;;;-0.55;84.86
25238;BME280;13185;50.872;5.306;2023-02-28T08:36:06;102740.81;;;-0.50;84.60
25238;BME280;13185;50.872;5.306;2023-02-28T08:38:32;102739.94;;;-0.46;84.35
25238;BME280;13185;50.872;5.306;2023-02-28T08:40:59;102732.94;;;-0.43;84.46
25238;BME280;13185;50.872;5.306;2023-02-28T08:43:25;102740.94;;;-0.38;84.14
25238;BME280;13185;50.872;5.306;2023-02-28T08:45:52;102729.53;;;-0.34;83.95
25238;BME280;13185;50.872;5.306;2023-02-28T08:48:17;102728.72;;;-0.30;83.68
25238;BME280;13185;50.872;5.306;2023-02-28T08:50:43;102729.59;;;-0.30;82.73
25238;BME280;13185;50.872;5.306;2023-02-28T08:53:08;102729.63;;;-0.23;82.64
25238;BME280;13185;50.872;5.306;2023-02-28T08:55:34;102731.44;;;-0.19;82.39
25238;BME280;13185;50.872;5.306;2023-02-28T08:57:59;102718.28;;;-0.15;82.69
25238;BME280;13185;50.872;5.306;2023-02-28T09:00:26;102724.50;;;-0.10;82.72
25238;BME280;13185;50.872;5.306;2023-02-28T09:02:52;102725.44;;;-0.03;82.70
25238;BME280;13185;50.872;5.306;2023-02-28T09:05:17;102729.00;;;0.01;81.73
25238;BME280;13185;50.872;5.306;2023-02-28T09:07:43;102737.84;;;0.09;81.69
25238;BME280;13185;50.872;5.306;2023-02-28T09:10:09;102730.00;;;0.16;81.39
25238;BME280;13185;50.872;5.306;2023-02-28T09:12:35;102724.72;;;0.18;79.57
25238;BME280;13185;50.872;5.306;2023-02-28T09:15:02;102721.19;;;0.19;77.83
25238;BME280;13185;50.872;5.306;2023-02-28T09:17:27;102715.97;;;0.22;78.00
25238;BME280;13185;50.872;5.306;2023-02-28T09:19:53;102715.13;;;0.29;79.05
25238;BME280;13185;50.872;5.306;2023-02-28T09:22:18;102714.31;;;0.41;78.27
25238;BME280;13185;50.872;5.306;2023-02-28T09:24:44;102711.75;;;0.50;75.01
25238;BME280;13185;50.872;5.306;2023-02-28T09:27:10;102714.44;;;0.54;75.36
25238;BME280;13185;50.872;5.306;2023-02-28T09:29:36;102711.81;;;0.59;72.86
25238;BME280;13185;50.872;5.306;2023-02-28T09:32:02;102711.84;;;0.65;70.14
25238;BME280;13185;50.872;5.306;2023-02-28T09:34:28;102705.69;;;0.69;68.87
25238;BME280;13185;50.872;5.306;2023-02-28T09:36:56;102706.63;;;0.76;68.83
25238;BME280;13185;50.872;5.306;2023-02-28T09:39:22;102710.16;;;0.81;69.05
25238;BME280;13185;50.872;5.306;2023-02-28T09:41:51;102698.75;;;0.93;68.37
25238;BME280;13185;50.872;5.306;2023-02-28T09:47:12;102697.97;;;1.10;68.55
25238;BME280;13185;50.872;5.306;2023-02-28T09:49:46;102703.28;;;1.17;65.97
25238;BME280;13185;50.872;5.306;2023-02-28T09:52:17;102705.94;;;1.20;66.77
25238;BME280;13185;50.872;5.306;2023-02-28T09:54:44;102699.78;;;1.28;67.70
25238;BME280;13185;50.872;5.306;2023-02-28T09:57:25;102698.94;;;1.40;66.89
25238;BME280;13185;50.872;5.306;2023-02-28T10:09:59;102700.75;;;1.73;63.37
25238;BME280;13185;50.872;5.306;2023-02-28T10:12:27;102691.94;;;1.82;63.52
25238;BME280;13185;50.872;5.306;2023-02-28T10:14:56;102692.84;;;1.90;63.94
25238;BME280;13185;50.872;5.306;2023-02-28T10:17:27;102690.19;;;1.93;61.19
25238;BME280;13185;50.872;5.306;2023-02-28T10:20:01;102688.41;;;1.93;61.06
25238;BME280;13185;50.872;5.306;2023-02-28T10:22:45;102683.13;;;1.99;61.63
25238;BME280;13185;50.872;5.306;2023-02-28T10:25:19;102699.00;;;2.07;61.06
25238;BME280;13185;50.872;5.306;2023-02-28T10:27:44;102689.31;;;2.12;57.90
25238;BME280;13185;50.872;5.306;2023-02-28T10:30:11;102691.94;;;2.06;55.92
25238;BME280;13185;50.872;5.306;2023-02-28T10:32:40;102691.94;;;2.12;57.29
25238;BME280;13185;50.872;5.306;2023-02-28T10:35:19;102680.47;;;2.21;58.00
25238;BME280;13185;50.872;5.306;2023-02-28T10:37:59;102685.75;;;2.35;58.93
25238;BME280;13185;50.872;5.306;2023-02-28T10:40:34;102680.38;;;2.57;59.05
25238;BME280;13185;50.872;5.306;2023-02-28T10:43:06;102675.00;;;2.80;57.71
25238;BME280;13185;50.872;5.306;2023-02-28T10:46:03;102672.34;;;2.88;56.11
25238;BME280;13185;50.872;5.306;2023-02-28T10:48:38;102672.28;;;3.00;55.03
25238;BME280;13185;50.872;5.306;2023-02-28T10:51:16;102681.06;;;3.13;54.77
25238;BME280;13185;50.872;5.306;2023-02-28T10:58:47;102662.44;;;3.21;52.26
25238;BME280;13185;50.872;5.306;2023-02-28T11:04:16;102667.81;;;3.11;53.07
25238;BME280;13185;50.872;5.306;2023-02-28T11:06:42;102662.53;;;3.08;52.99
25238;BME280;13185;50.872;5.306;2023-02-28T11:11:51;102663.47;;;3.03;53.27
25238;BME280;13185;50.872;5.306;2023-02-28T11:14:23;102666.13;;;2.97;52.98
25238;BME280;13185;50.872;5.306;2023-02-28T11:16:50;102656.44;;;2.93;51.46
25238;BME280;13185;50.872;5.306;2023-02-28T11:19:27;102647.59;;;2.94;51.22
25238;BME280;13185;50.872;5.306;2023-02-28T11:21:57;102652.00;;;2.95;49.04
25238;BME280;13185;50.872;5.306;2023-02-28T11:24:31;102644.91;;;2.97;48.47
25238;BME280;13185;50.872;5.306;2023-02-28T11:26:59;102643.09;;;3.02;49.07
25238;BME280;13185;50.872;5.306;2023-02-28T11:29:30;102645.69;;;3.12;48.89
25238;BME280;13185;50.872;5.306;2023-02-28T11:34:35;102643.03;;;3.18;47.42
25238;BME280;13185;50.872;5.306;2023-02-28T11:37:01;102637.75;;;3.17;47.28
25238;BME280;13185;50.872;5.306;2023-02-28T11:39:33;102634.16;;;3.21;47.61
25238;BME280;13185;50.872;5.306;2023-02-28T11:52:54;102629.59;;;3.47;47.52
25238;BME280;13185;50.872;5.306;2023-02-28T11:55:24;102634.00;;;3.47;47.74
25238;BME280;13185;50.872;5.306;2023-02-28T12:03:16;102629.44;;;3.64;46.91
25238;BME280;13185;50.872;5.306;2023-02-28T12:06:02;102627.63;;;3.71;46.64
25238;BME280;13185;50.872;5.306;2023-02-28T12:11:29;102624.03;;;3.78;45.84
25238;BME280;13185;50.872;5.306;2023-02-28T12:14:41;102612.53;;;3.79;45.17
25238;BME280;13185;50.872;5.306;2023-02-28T12:28:44;102609.53;;;4.13;45.47
25238;BME280;13185;50.872;5.306;2023-02-28T12:31:19;102590.91;;;4.16;46.01
25238;BME280;13185;50.872;5.306;2023-02-28T12:33:51;102591.69;;;4.25;46.14
25238;BME280;13185;50.872;5.306;2023-02-28T12:36:19;102586.31;;;4.33;46.42
25238;BME280;13185;50.872;5.306;2023-02-28T12:41:19;102590.66;;;4.40;44.53
25238;BME280;13185;50.872;5.306;2023-02-28T12:44:26;102585.31;;;4.42;44.69
25238;BME280;13185;50.872;5.306;2023-02-28T12:47:00;102577.28;;;4.49;45.61
25238;BME280;13185;50.872;5.306;2023-02-28T12:49:39;102580.75;;;4.54;44.26
25238;BME280;13185;50.872;5.306;2023-02-28T12:52:06;102573.66;;;4.55;44.89
25238;BME280;13185;50.872;5.306;2023-02-28T12:54:56;102575.31;;;4.63;45.49
25238;BME280;13185;50.872;5.306;2023-02-28T12:57:35;102577.97;;;4.63;44.61
25238;BME280;13185;50.872;5.306;2023-02-28T13:10:50;102577.84;;;4.73;43.71
25238;BME280;13185;50.872;5.306;2023-02-28T13:13:24;102570.69;;;4.78;44.09
25238;BME280;13185;50.872;5.306;2023-02-28T13:16:06;102563.50;;;4.84;44.38
25238;BME280;13185;50.872;5.306;2023-02-28T13:21:04;102560.63;;;5.00;43.74
25238;BME280;13185;50.872;5.306;2023-02-28T13:26:12;102561.34;;;5.12;44.36
25238;BME280;13185;50.872;5.306;2023-02-28T13:29:00;102563.16;;;5.09;43.55
25238;BME280;13185;50.872;5.306;2023-02-28T13:31:26;102546.28;;;5.10;43.14
25238;BME280;13185;50.872;5.306;2023-02-28T13:36:27;102557.66;;;5.21;43.91
25238;BME280;13185;50.872;5.306;2023-02-28T13:44:16;102546.84;;;5.32;42.46
25238;BME280;13185;50.872;5.306;2023-02-28T13:49:25;102548.28;;;5.53;43.77
25238;BME280;13185;50.872;5.306;2023-02-28T14:00:41;102544.16;;;5.86;43.25
25238;BME280;13185;50.872;5.306;2023-02-28T14:11:43;102532.22;;;6.08;42.63
25238;BME280;13185;50.872;5.306;2023-02-28T14:17:02;102523.38;;;6.06;41.94
25238;BME280;13185;50.872;5.306;2023-02-28T14:19:30;102524.28;;;6.03;42.53
25238;BME280;13185;50.872;5.306;2023-02-28T14:25:24;102523.34;;;6.07;42.51
25238;BME280;13185;50.872;5.306;2023-02-28T14:28:41;102522.25;;;6.18;42.04
25238;BME280;13185;50.872;5.306;2023-02-28T14:31:25;102520.31;;;6.24;42.32
25238;BME280;13185;50.872;5.306;2023-02-28T14:36:44;102528.16;;;6.32;41.82
25238;BME280;13185;50.872;5.306;2023-02-28T14:39:16;102533.38;;;6.38;41.57
25238;BME280;13185;50.872;5.306;2023-02-28T14:41:43;102523.59;;;6.39;41.54
25238;BME280;13185;50.872;5.306;2023-02-28T14:44:26;102526.06;;;6.48;42.50
25238;BME280;13185;50.872;5.306;2023-02-28T14:46:57;102517.97;;;6.52;41.08
25238;BME280;13185;50.872;5.306;2023-02-28T14:49:28;102518.00;;;6.51;42.07
25238;BME280;13185;50.872;5.306;2023-02-28T14:54:35;102521.38;;;6.59;41.15
25238;BME280;13185;50.872;5.306;2023-02-28T14:57:02;102517.09;;;6.52;41.08
25238;BME280;13185;50.872;5.306;2023-02-28T14:59:30;102515.41;;;6.48;41.53
25238;BME280;13185;50.872;5.306;2023-02-28T15:02:15;102513.59;;;6.50;41.78
25238;BME280;13185;50.872;5.306;2023-02-28T15:04:41;102516.97;;;6.58;42.09
25238;BME280;13185;50.872;5.306;2023-02-28T15:07:14;102512.28;;;6.69;42.08
25238;BME280;13185;50.872;5.306;2023-02-28T15:09:40;102521.75;;;6.82;42.25
25238;BME280;13185;50.872;5.306;2023-02-28T15:12:06;102514.50;;;6.87;42.83
25238;BME280;13185;50.872;5.306;2023-02-28T15:14:34;102515.53;;;6.82;41.75
25238;BME280;13185;50.872;5.306;2023-02-28T15:17:15;102518.25;;;6.80;42.29
25238;BME280;13185;50.872;5.306;2023-02-28T15:19:48;102509.41;;;6.77;42.10
25238;BME280;13185;50.872;5.306;2023-02-28T15:22:19;102510.13;;;6.85;42.42
25238;BME280;13185;50.872;5.306;2023-02-28T15:24:50;102508.34;;;6.85;41.62
25238;BME280;13185;50.872;5.306;2023-02-28T15:27:22;102513.13;;;6.71;42.18
25238;BME280;13185;50.872;5.306;2023-02-28T15:29:55;102517.44;;;6.75;42.32
25238;BME280;13185;50.872;5.306;2023-02-28T15:32:30;102519.31;;;6.72;41.75
25238;BME280;13185;50.872;5.306;2023-02-28T15:34:59;102518.31;;;6.76;41.84
25238;BME280;13185;50.872;5.306;2023-02-28T15:39:53;102518.53;;;6.66;41.42
25238;BME280;13185;50.872;5.306;2023-02-28T15:42:21;102521.28;;;6.63;41.21